sensor_id;sensor_type;location;lat;lon;timestamp;temperature;humidity
43227;DHT22;28839;52.404;9.808;2023-02-28T00:01:54;-0.60;99.90
43227;DHT22;28839;52.404;9.808;2023-02-28T00:08:48;-0.70;99.90
43227;DHT22;28839;52.404;9.808;2023-02-28T00:15:43;-0.70;99.90
43227;DHT22;28839;52.404;9.808;2023-02-28T00:22:39;-0.90;99.90
43227;DHT22;28839;52.404;9.808;2023-02-28T00:29:33;-1.00;99.90
43227;DHT22;28839;52.404;9.808;2023-02-28T00:36:28;-0.90;99.90
43227;DHT22;28839;52.404;9.808;2023-02-28T00:43:22;-0.90;99.90
43227;DHT22;28839;52.404;9.808;2023-02-28T00:50:16;-0.90;99.90
43227;DHT22;28839;52.404;9.808;2023-02-28T00:57:12;-1.00;99.90
43227;DHT22;28839;52.404;9.808;2023-02-28T01:04:05;-1.10;99.90
43227;DHT22;28839;52.404;9.808;2023-02-28T01:11:07;-1.10;99.90
43227;DHT22;28839;52.404;9.808;2023-02-28T01:18:03;-1.30;99.90
43227;DHT22;28839;52.404;9.808;2023-02-28T01:24:57;-1.40;99.90
43227;DHT22;28839;52.404;9.808;2023-02-28T01:31:50;-1.40;99.90
43227;DHT22;28839;52.404;9.808;2023-02-28T01:38:46;-1.50;99.90
43227;DHT22;28839;52.404;9.808;2023-02-28T01:45:40;-1.70;99.90
43227;DHT22;28839;52.404;9.808;2023-02-28T01:52:34;-1.60;99.90
43227;DHT22;28839;52.404;9.808;2023-02-28T01:59:34;-1.80;99.90
43227;DHT22;28839;52.404;9.808;2023-02-28T02:06:34;-1.80;99.90
43227;DHT22;28839;52.404;9.808;2023-02-28T02:13:53;-1.90;99.90
43227;DHT22;28839;52.404;9.808;2023-02-28T02:21:13;-1.90;99.90
43227;DHT22;28839;52.404;9.808;2023-02-28T02:28:37;-2.00;99.90
43227;DHT22;28839;52.404;9.808;2023-02-28T02:35:40;-2.10;99.90
43227;DHT22;28839;52.404;9.808;2023-02-28T02:42:41;-2.10;99.90
43227;DHT22;28839;52.404;9.808;2023-02-28T02:49:38;-2.20;99.90
43227;DHT22;28839;52.404;9.808;2023-02-28T02:56:34;-2.30;99.90
43227;DHT22;28839;52.404;9.808;2023-02-28T03:03:31;-2.30;99.90
43227;DHT22;28839;52.404;9.808;2023-02-28T03:10:32;-2.30;99.90
43227;DHT22;28839;52.404;9.808;2023-02-28T03:17:47;-2.40;99.90
43227;DHT22;28839;52.404;9.808;2023-02-28T03:24:49;-2.50;99.90
43227;DHT22;28839;52.404;9.808;2023-02-28T03:31:48;-2.60;99.90
43227;DHT22;28839;52.404;9.808;2023-02-28T03:38:47;-2.60;99.90
43227;DHT22;28839;52.404;9.808;2023-02-28T03:45:43;-2.60;99.90
43227;DHT22;28839;52.404;9.808;2023-02-28T03:52:40;-2.80;99.90
43227;DHT22;28839;52.404;9.808;2023-02-28T03:59:41;-2.80;99.90
43227;DHT22;28839;52.404;9.808;2023-02-28T04:06:37;-2.90;99.90
43227;DHT22;28839;52.404;9.808;2023-02-28T04:13:31;-2.90;99.90
43227;DHT22;28839;52.404;9.808;2023-02-28T04:20:26;-3.00;99.90
43227;DHT22;28839;52.404;9.808;2023-02-28T04:27:20;-3.10;99.90
43227;DHT22;28839;52.404;9.808;2023-02-28T04:34:15;-3.10;99.90
43227;DHT22;28839;52.404;9.808;2023-02-28T04:41:10;-3.10;99.90
43227;DHT22;28839;52.404;9.808;2023-02-28T04:48:04;-3.20;99.90
43227;DHT22;28839;52.404;9.808;2023-02-28T04:54:58;-3.30;99.90
43227;DHT22;28839;52.404;9.808;2023-02-28T05:01:53;-3.30;99.90
43227;DHT22;28839;52.404;9.808;2023-02-28T05:08:47;-3.30;99.90
43227;DHT22;28839;52.404;9.808;2023-02-28T05:15:41;-3.30;99.90
43227;DHT22;28839;52.404;9.808;2023-02-28T05:22:37;-3.40;99.90
43227;DHT22;28839;52.404;9.808;2023-02-28T05:29:30;-3.50;99.90
43227;DHT22;28839;52.404;9.808;2023-02-28T05:36:24;-3.50;99.90
43227;DHT22;28839;52.404;9.808;2023-02-28T05:43:20;-3.70;99.90
43227;DHT22;28839;52.404;9.808;2023-02-28T05:50:14;-3.50;99.90
43227;DHT22;28839;52.404;9.808;2023-02-28T05:57:08;-3.50;99.90
43227;DHT22;28839;52.404;9.808;2023-02-28T06:04:04;-3.40;99.90
43227;DHT22;28839;52.404;9.808;2023-02-28T06:11:02;-3.40;99.90
43227;DHT22;28839;52.404;9.808;2023-02-28T06:17:57;-3.50;99.90
43227;DHT22;28839;52.404;9.808;2023-02-28T06:24:52;-3.40;99.90
43227;DHT22;28839;52.404;9.808;2023-02-28T06:31:47;-3.40;99.90
43227;DHT22;28839;52.404;9.808;2023-02-28T06:38:41;-3.50;99.90
43227;DHT22;28839;52.404;9.808;2023-02-28T06:45:37;-3.30;99.90
43227;DHT22;28839;52.404;9.808;2023-02-28T06:52:34;-3.10;99.90
43227;DHT22;28839;52.404;9.808;2023-02-28T06:59:29;-1.40;99.90
43227;DHT22;28839;52.404;9.808;2023-02-28T07:06:25;-0.10;99.90
43227;DHT22;28839;52.404;9.808;2023-02-28T07:13:19;0.80;99.90
43227;DHT22;28839;52.404;9.808;2023-02-28T07:20:14;0.60;99.90
43227;DHT22;28839;52.404;9.808;2023-02-28T07:27:09;0.00;99.90
43227;DHT22;28839;52.404;9.808;2023-02-28T07:34:03;-0.30;99.90
43227;DHT22;28839;52.404;9.808;2023-02-28T07:40:57;-0.10;99.90
43227;DHT22;28839;52.404;9.808;2023-02-28T07:47:53;0.20;99.90
43227;DHT22;28839;52.404;9.808;2023-02-28T07:54:46;0.70;99.90
43227;DHT22;28839;52.404;9.808;2023-02-28T08:01:40;0.80;99.90
43227;DHT22;28839;52.404;9.808;2023-02-28T08:08:38;0.90;99.90
43227;DHT22;28839;52.404;9.808;2023-02-28T08:15:32;1.20;99.90
43227;DHT22;28839;52.404;9.808;2023-02-28T08:22:26;1.50;99.90
43227;DHT22;28839;52.404;9.808;2023-02-28T08:29:21;1.70;99.90
43227;DHT22;28839;52.404;9.808;2023-02-28T08:36:15;2.10;99.90
43227;DHT22;28839;52.404;9.808;2023-02-28T08:43:09;2.60;99.90
43227;DHT22;28839;52.404;9.808;2023-02-28T08:50:05;2.90;99.90
43227;DHT22;28839;52.404;9.808;2023-02-28T08:57:00;3.10;99.90
43227;DHT22;28839;52.404;9.808;2023-02-28T09:03:54;3.40;99.90
43227;DHT22;28839;52.404;9.808;2023-02-28T09:10:50;3.90;99.90
43227;DHT22;28839;52.404;9.808;2023-02-28T09:17:44;4.20;99.90
43227;DHT22;28839;52.404;9.808;2023-02-28T09:24:38;4.20;99.90
43227;DHT22;28839;52.404;9.808;2023-02-28T09:31:34;4.30;99.90
43227;DHT22;28839;52.404;9.808;2023-02-28T09:38:28;5.10;99.90
43227;DHT22;28839;52.404;9.808;2023-02-28T09:45:26;5.10;99.90
43227;DHT22;28839;52.404;9.808;2023-02-28T09:52:26;5.10;99.90
43227;DHT22;28839;52.404;9.808;2023-02-28T09:59:39;5.30;99.90
43227;DHT22;28839;52.404;9.808;2023-02-28T10:06:38;5.90;99.90
43227;DHT22;28839;52.404;9.808;2023-02-28T10:13:36;6.50;99.90
43227;DHT22;28839;52.404;9.808;2023-02-28T10:20:35;6.50;99.90
43227;DHT22;28839;52.404;9.808;2023-02-28T10:27:32;7.10;99.90
43227;DHT22;28839;52.404;9.808;2023-02-28T10:34:27;6.50;99.90
43227;DHT22;28839;52.404;9.808;2023-02-28T10:41:29;6.50;99.90
43227;DHT22;28839;52.404;9.808;2023-02-28T10:48:33;6.10;99.90
43227;DHT22;28839;52.404;9.808;2023-02-28T10:55:28;5.90;99.90
43227;DHT22;28839;52.404;9.808;2023-02-28T11:02:31;6.40;99.90
43227;DHT22;28839;52.404;9.808;2023-02-28T11:09:28;6.10;99.90
43227;DHT22;28839;52.404;9.808;2023-02-28T11:16:33;6.40;99.90
43227;DHT22;28839;52.404;9.808;2023-02-28T11:23:30;6.20;99.90
43227;DHT22;28839;52.404;9.808;2023-02-28T11:30:33;6.00;99.90
43227;DHT22;28839;52.404;9.808;2023-02-28T11:37:29;5.50;99.90
43227;DHT22;28839;52.404;9.808;2023-02-28T11:44:34;6.20;99.90
43227;DHT22;28839;52.404;9.808;2023-02-28T11:51:34;6.40;99.90
43227;DHT22;28839;52.404;9.808;2023-02-28T11:58:46;6.10;99.90
43227;DHT22;28839;52.404;9.808;2023-02-28T12:05:45;5.70;99.90
43227;DHT22;28839;52.404;9.808;2023-02-28T12:12:45;5.20;99.90
43227;DHT22;28839;52.404;9.808;2023-02-28T12:19:48;4.90;99.90
43227;DHT22;28839;52.404;9.808;2023-02-28T12:26:49;4.80;99.90
43227;DHT22;28839;52.404;9.808;2023-02-28T12:33:47;4.50;99.90
43227;DHT22;28839;52.404;9.808;2023-02-28T12:40:47;4.90;99.90
43227;DHT22;28839;52.404;9.808;2023-02-28T12:47:44;5.10;99.90
43227;DHT22;28839;52.404;9.808;2023-02-28T12:54:47;5.00;99.90
43227;DHT22;28839;52.404;9.808;2023-02-28T13:02:09;4.60;99.90
43227;DHT22;28839;52.404;9.808;2023-02-28T13:09:08;4.30;99.90
43227;DHT22;28839;52.404;9.808;2023-02-28T13:16:06;4.50;99.90
43227;DHT22;28839;52.404;9.808;2023-02-28T13:23:01;5.30;99.90
43227;DHT22;28839;52.404;9.808;2023-02-28T13:29:58;5.40;99.90
43227;DHT22;28839;52.404;9.808;2023-02-28T13:37:32;5.20;99.90
43227;DHT22;28839;52.404;9.808;2023-02-28T13:44:29;5.40;99.90
43227;DHT22;28839;52.404;9.808;2023-02-28T13:51:38;5.20;99.90
43227;DHT22;28839;52.404;9.808;2023-02-28T13:58:43;5.10;99.90
43227;DHT22;28839;52.404;9.808;2023-02-28T14:05:40;5.20;99.90
43227;DHT22;28839;52.404;9.808;2023-02-28T14:12:54;5.50;99.90
43227;DHT22;28839;52.404;9.808;2023-02-28T14:19:48;5.30;99.90
43227;DHT22;28839;52.404;9.808;2023-02-28T14:34:39;5.40;99.90
43227;DHT22;28839;52.404;9.808;2023-02-28T14:41:38;5.50;99.90
43227;DHT22;28839;52.404;9.808;2023-02-28T14:48:33;5.40;99.90
43227;DHT22;28839;52.404;9.808;2023-02-28T14:55:31;5.30;99.90
43227;DHT22;28839;52.404;9.808;2023-02-28T15:02:30;5.10;99.90
43227;DHT22;28839;52.404;9.808;2023-02-28T15:09:24;5.20;99.90
43227;DHT22;28839;52.404;9.808;2023-02-28T15:16:22;5.30;99.90
43227;DHT22;28839;52.404;9.808;2023-02-28T15:23:18;5.20;99.90
43227;DHT22;28839;52.404;9.808;2023-02-28T15:30:16;5.20;99.90
43227;DHT22;28839;52.404;9.808;2023-02-28T15:37:38;5.20;99.90
43227;DHT22;28839;52.404;9.808;2023-02-28T15:44:34;5.00;99.90
43227;DHT22;28839;52.404;9.808;2023-02-28T15:51:29;4.90;99.90
43227;DHT22;28839;52.404;9.808;2023-02-28T15:58:25;5.00;99.90
43227;DHT22;28839;52.404;9.808;2023-02-28T16:05:23;4.90;99.90
43227;DHT22;28839;52.404;9.808;2023-02-28T16:12:21;4.70;99.90
43227;DHT22;28839;52.404;9.808;2023-02-28T16:19:20;4.50;99.90
43227;DHT22;28839;52.404;9.808;2023-02-28T16:26:19;4.50;99.90
43227;DHT22;28839;52.404;9.808;2023-02-28T16:33:14;4.20;99.90
43227;DHT22;28839;52.404;9.808;2023-02-28T16:40:14;4.10;99.90
43227;DHT22;28839;52.404;9.808;2023-02-28T16:47:10;3.90;99.90
43227;DHT22;28839;52.404;9.808;2023-02-28T16:54:04;3.90;99.90
43227;DHT22;28839;52.404;9.808;2023-02-28T17:01:00;3.80;99.90
43227;DHT22;28839;52.404;9.808;2023-02-28T17:07:54;3.40;99.90
43227;DHT22;28839;52.404;9.808;2023-02-28T17:14:49;3.20;99.90
43227;DHT22;28839;52.404;9.808;2023-02-28T17:21:44;3.10;99.90
43227;DHT22;28839;52.404;9.808;2023-02-28T17:28:38;2.80;99.90
43227;DHT22;28839;52.404;9.808;2023-02-28T17:35:32;2.60;99.90
43227;DHT22;28839;52.404;9.808;2023-02-28T17:42:28;2.30;99.90
43227;DHT22;28839;52.404;9.808;2023-02-28T17:49:22;2.10;99.90
43227;DHT22;28839;52.404;9.808;2023-02-28T17:56:17;1.90;99.90
43227;DHT22;28839;52.404;9.808;2023-02-28T18:03:13;1.70;99.90
43227;DHT22;28839;52.404;9.808;2023-02-28T18:10:12;1.60;99.90
43227;DHT22;28839;52.404;9.808;2023-02-28T18:17:08;1.40;99.90
43227;DHT22;28839;52.404;9.808;2023-02-28T18:24:04;1.30;99.90
43227;DHT22;28839;52.404;9.808;2023-02-28T18:30:59;1.20;99.90
43227;DHT22;28839;52.404;9.808;2023-02-28T18:37:58;1.20;99.90
43227;DHT22;28839;52.404;9.808;2023-02-28T18:44:53;1.00;99.90
43227;DHT22;28839;52.404;9.808;2023-02-28T18:51:47;0.80;99.90
43227;DHT22;28839;52.404;9.808;2023-02-28T18:58:41;0.80;99.90
43227;DHT22;28839;52.404;9.808;2023-02-28T19:05:37;0.70;99.90
43227;DHT22;28839;52.404;9.808;2023-02-28T19:12:32;0.70;99.90
43227;DHT22;28839;52.404;9.808;2023-02-28T19:19:27;0.80;99.90
43227;DHT22;28839;52.404;9.808;2023-02-28T19:26:24;0.70;99.90
43227;DHT22;28839;52.404;9.808;2023-02-28T19:33:18;0.60;99.90
43227;DHT22;28839;52.404;9.808;2023-02-28T19:40:13;0.50;99.90
43227;DHT22;28839;52.404;9.808;2023-02-28T19:47:08;0.30;99.90
43227;DHT22;28839;52.404;9.808;2023-02-28T19:54:02;0.00;99.90
43227;DHT22;28839;52.404;9.808;2023-02-28T20:00:57;0.00;99.90
43227;DHT22;28839;52.404;9.808;2023-02-28T20:07:54;-0.20;99.90
43227;DHT22;28839;52.404;9.808;2023-02-28T20:14:48;-0.30;99.90
43227;DHT22;28839;52.404;9.808;2023-02-28T20:21:42;-0.10;99.90
43227;DHT22;28839;52.404;9.808;2023-02-28T20:28:38;-0.30;99.90
43227;DHT22;28839;52.404;9.808;2023-02-28T20:35:32;-0.40;99.90
43227;DHT22;28839;52.404;9.808;2023-02-28T20:42:32;-0.60;99.90
43227;DHT22;28839;52.404;9.808;2023-02-28T20:49:27;-0.70;99.90
43227;DHT22;28839;52.404;9.808;2023-02-28T20:56:22;-0.90;99.90
43227;DHT22;28839;52.404;9.808;2023-02-28T21:03:16;-1.00;99.90
43227;DHT22;28839;52.404;9.808;2023-02-28T21:10:12;-1.30;99.90
43227;DHT22;28839;52.404;9.808;2023-02-28T21:17:05;-1.40;99.90
43227;DHT22;28839;52.404;9.808;2023-02-28T21:24:02;-1.30;99.90
43227;DHT22;28839;52.404;9.808;2023-02-28T21:31:01;-1.40;99.90
43227;DHT22;28839;52.404;9.808;2023-02-28T21:37:55;-1.40;99.90
43227;DHT22;28839;52.404;9.808;2023-02-28T21:44:49;-1.50;99.90
43227;DHT22;28839;52.404;9.808;2023-02-28T21:51:44;-1.50;99.90
43227;DHT22;28839;52.404;9.808;2023-02-28T21:58:41;-1.60;99.90
43227;DHT22;28839;52.404;9.808;2023-02-28T22:05:35;-1.60;99.90
43227;DHT22;28839;52.404;9.808;2023-02-28T22:12:30;-1.70;99.90
43227;DHT22;28839;52.404;9.808;2023-02-28T22:19:24;-1.70;99.90
43227;DHT22;28839;52.404;9.808;2023-02-28T22:26:20;-1.80;99.90
43227;DHT22;28839;52.404;9.808;2023-02-28T22:33:15;-1.90;99.90
43227;DHT22;28839;52.404;9.808;2023-02-28T22:40:11;-2.00;99.90
43227;DHT22;28839;52.404;9.808;2023-02-28T22:47:05;-2.00;99.90
43227;DHT22;28839;52.404;9.808;2023-02-28T22:54:00;-2.00;99.90
43227;DHT22;28839;52.404;9.808;2023-02-28T23:00:55;-2.10;99.90
43227;DHT22;28839;52.404;9.808;2023-02-28T23:07:49;-2.20;99.90
43227;DHT22;28839;52.404;9.808;2023-02-28T23:14:44;-2.40;99.90
43227;DHT22;28839;52.404;9.808;2023-02-28T23:21:39;-2.30;99.90
43227;DHT22;28839;52.404;9.808;2023-02-28T23:28:33;-2.50;99.90
43227;DHT22;28839;52.404;9.808;2023-02-28T23:35:28;-2.60;99.90
43227;DHT22;28839;52.404;9.808;2023-02-28T23:42:22;-2.60;99.90
43227;DHT22;28839;52.404;9.808;2023-02-28T23:49:17;-2.60;99.90
43227;DHT22;28839;52.404;9.808;2023-02-28T23:56:15;-2.70;99.90
